Latest Weather Observations for Scotts Peak

IDT60801

Issued at 8:41 pm EDT Thursday 21 February 2019 (issued every 10 minutes, with the page automatically refreshed every 10 minutes)

About weather observations | Map of weather stations | Latest weather observations for TAS | Other Formats
Station Details ID: 097083 Name: SCOTTS PEAK DAM Lat: -43.04 Lon: 146.27 Height: 408.0 m
Data from the previous 72 hours. | See also: Recent months at Scotts Peak
Date/Time
EDT
Temp
°C
App
Temp
°C
Dew
Point
°C
Rel
Hum
%
Delta-T
°C
Wind Press
QNH
hPa
Press
MSL
hPa
Rain since
9am
mm
Dir  Spd
km/h
Gust
km/h
Spd
kts
Gust
kts
21/08:30pm 9.9 5.4 9.9 100 0.0 WNW 24 30 13 16 - - 3.0
21/08:00pm 10.1 5.2 10.1 100 0.0 WNW 26 32 14 17 - - 3.0
21/07:30pm 10.3 5.4 10.0 98 0.2 WNW 26 33 14 18 - - 3.0
21/07:00pm 10.4 5.2 10.4 100 0.0 WNW 28 32 15 17 - - 3.0
21/06:30pm 10.8 6.5 10.6 99 0.1 WNW 24 33 13 18 - - 3.0
21/06:00pm 11.3 6.5 9.0 86 1.2 WNW 24 33 13 18 - - 3.0
21/05:30pm 11.2 5.2 8.8 85 1.2 WNW 30 41 16 22 - - 3.0
21/05:00pm 10.9 6.8 10.0 94 0.5 W 22 35 12 19 - - 3.0
21/04:30pm 11.4 6.8 9.7 89 0.9 WNW 24 32 13 17 - - 2.6
21/04:00pm 11.2 5.9 8.6 84 1.3 WNW 26 37 14 20 - - 2.6
21/03:30pm 11.1 6.0 10.6 97 0.3 WNW 28 43 15 23 - - 2.6
21/03:01pm 10.2 4.9 9.9 98 0.2 WNW 28 46 15 25 - - 2.6
21/03:00pm 10.3 5.4 10.0 98 0.2 WNW 26 44 14 24 - - 2.6
21/02:37pm 10.3 4.5 9.4 94 0.5 WSW 30 70 16 38 - - 2.6
21/02:30pm 10.5 6.1 10.5 100 0.0 W 24 37 13 20 - - 2.6
21/02:00pm 11.2 4.7 9.1 87 1.1 WNW 33 46 18 25 - - 1.4
21/01:30pm 10.9 6.6 10.9 100 0.0 WNW 24 37 13 20 - - 1.4
21/01:00pm 11.1 5.2 9.2 88 1.0 WNW 30 46 16 25 - - 1.2
21/12:46pm 11.0 4.5 10.4 96 0.3 WNW 35 54 19 29 - - 1.2
21/12:42pm 10.7 3.2 9.6 93 0.6 WNW 39 54 21 29 - - 1.2
21/12:31pm 11.3 2.0 9.2 87 1.1 WNW 48 67 26 36 - - 1.2
21/12:30pm 11.6 2.8 9.5 87 1.1 WNW 46 59 25 32 - - 1.2
21/12:00pm 11.3 3.9 9.7 90 0.8 WNW 39 56 21 30 - - 1.2
21/11:30am 10.9 4.4 10.4 97 0.3 WNW 35 57 19 31 - - 0.8
21/11:03am 11.3 5.0 9.0 86 1.2 WNW 32 59 17 32 - - 0.8
21/11:00am 11.0 4.9 9.6 91 0.7 WNW 32 44 17 24 - - 0.8
21/10:32am 10.3 3.4 10.3 100 0.0 WNW 37 57 20 31 - - 0.8
21/10:30am 10.4 3.9 10.4 100 0.0 WNW 35 52 19 28 - - 0.8
21/10:00am 10.0 2.6 10.0 100 0.0 WNW 39 57 21 31 - - 0.8
21/09:48am 9.9 1.6 9.9 100 0.0 WNW 44 63 24 34 - - 0.8
21/09:30am 9.8 1.6 9.8 100 0.0 WNW 43 56 23 30 - - 0.6
21/09:00am 9.5 0.7 9.4 99 0.1 WNW 46 65 25 35 - - 4.4
21/08:42am 9.3 1.0 9.3 100 0.0 WNW 43 61 23 33 - - 4.4
21/08:30am 9.2 0.7 9.2 100 0.0 WNW 44 61 24 33 - - 4.0
21/08:00am 9.1 -0.6 9.1 100 0.0 WNW 50 65 27 35 - - 3.8
21/07:51am 9.1 1.1 9.1 100 0.0 WNW 41 65 22 35 - - 3.8
21/07:30am 8.8 0.2 8.8 100 0.0 NW 44 56 24 30 - - 3.4
21/07:00am 8.4 -0.3 8.4 100 0.0 NW 44 56 24 30 - - 3.4
21/06:48am 8.3 -1.6 8.3 100 0.0 NW 50 69 27 37 - - 3.4
21/06:30am 8.1 -1.5 8.1 100 0.0 NW 48 57 26 31 - - 3.2
21/06:00am 8.2 -1.0 8.2 100 0.0 NW 46 57 25 31 - - 3.2
21/05:30am 8.1 -1.1 8.1 100 0.0 NW 46 59 25 32 - - 3.2
21/05:00am 8.1 -1.7 7.0 93 0.5 NW 48 57 26 31 - - 3.2
21/04:30am 8.0 -2.2 6.8 92 0.6 NW 50 63 27 34 - - 3.2
21/04:01am 8.0 -2.7 6.5 90 0.7 NW 52 70 28 38 - - 3.2
21/04:00am 8.0 -2.7 6.5 90 0.7 NW 52 63 28 34 - - 3.2
21/03:30am 7.9 -0.9 7.1 95 0.4 NW 43 54 23 29 - - 3.2
21/03:00am 7.7 -0.4 7.0 95 0.3 NW 39 46 21 25 - - 3.2
21/02:47am 7.8 -1.0 7.2 96 0.3 NW 43 63 23 34 - - 3.2
21/02:30am 7.7 0.1 7.4 98 0.1 NW 37 46 20 25 - - 3.2
21/02:00am 7.8 -1.1 6.9 94 0.4 NW 43 54 23 29 - - 3.2
21/01:30am 7.7 -0.6 7.7 100 0.0 NW 41 54 22 29 - - 3.2
21/01:19am 7.5 -1.3 7.4 99 0.0 NW 43 61 23 33 - - 3.2
21/01:00am 7.3 -2.4 7.3 100 0.0 NW 48 61 26 33 - - 3.2
21/12:39am 7.4 -1.9 7.4 100 0.0 NW 46 69 25 37 - - 3.2
21/12:30am 7.5 -0.9 7.4 99 0.0 NW 41 48 22 26 - - 2.8
21/12:00am 7.1 -2.3 7.1 100 0.0 NW 46 56 25 30 - - 2.8
 
Date/Time
EDT
Temp
°C
App
Temp
°C
Dew
Point
°C
Rel
Hum
%
Delta-T
°C
Wind Press
QNH
hPa
Press
MSL
hPa
Rain since
9am
mm
Dir  Spd
km/h
Gust
km/h
Spd
kts
Gust
kts
20/11:30pm 7.3 -1.7 7.3 100 0.0 NW 44 52 24 28 - - 2.8
20/11:17pm 7.4 -3.2 7.1 98 0.1 WNW 52 70 28 38 - - 2.8
20/11:00pm 7.6 -2.5 7.6 100 0.0 NW 50 65 27 35 - - 2.8
20/10:43pm 8.1 0.2 7.8 98 0.1 NW 39 61 21 33 - - 2.2
20/10:30pm 7.8 -0.9 7.8 100 0.0 NW 43 52 23 28 - - 2.2
20/10:26pm 7.8 -0.9 7.8 100 0.0 NW 43 52 23 28 - - 2.2
20/10:00pm 7.5 -1.4 6.8 95 0.3 WNW 43 57 23 31 - - 2.2
20/09:30pm 8.0 -1.2 6.3 89 0.8 NW 44 56 24 30 - - 2.0
20/09:00pm 8.9 -0.6 4.1 72 2.2 WNW 43 54 23 29 - - 1.6
20/08:30pm 9.0 0.0 4.8 75 1.9 WNW 41 50 22 27 - - 1.6
20/08:00pm 9.6 1.5 5.2 74 2.0 WNW 37 46 20 25 - - 1.6
20/07:30pm 10.0 2.4 6.0 76 1.9 WNW 35 46 19 25 - - 1.6
20/07:00pm 9.8 3.6 6.2 78 1.7 NW 28 43 15 23 - - 1.6
20/06:30pm 9.9 3.4 6.4 79 1.7 NW 30 39 16 21 - - 1.6
20/06:13pm 11.0 5.0 8.8 86 1.1 NW 30 48 16 26 - - 1.6
20/06:00pm 10.9 4.1 10.6 98 0.2 NW 37 48 20 26 - - 1.6
20/05:36pm 10.3 3.8 6.5 77 1.8 NW 30 48 16 26 - - 1.6
20/05:30pm 10.9 5.8 7.8 81 1.5 NW 24 37 13 20 - - 1.6
20/05:12pm 11.8 4.2 7.5 75 2.1 NW 37 56 20 30 - - 1.6
20/05:00pm 12.7 5.2 7.8 72 2.5 WNW 37 50 20 27 - - 1.6
20/04:30pm 10.2 1.8 7.3 82 1.4 WNW 41 56 22 30 - - 1.6
20/04:00pm 12.4 4.1 7.7 73 2.3 WNW 41 54 22 29 - - 1.6
20/03:30pm 11.5 2.8 7.8 78 1.8 WNW 43 57 23 31 - - 1.6
20/03:18pm 10.7 1.8 7.8 82 1.4 W 44 63 24 34 - - 1.6
20/03:00pm 12.1 3.3 5.7 65 3.1 WNW 41 54 22 29 - - 1.6
20/02:31pm 13.2 4.9 6.3 63 3.4 WNW 39 57 21 31 - - 1.6
20/02:30pm 12.8 4.0 5.7 62 3.4 WNW 41 57 22 31 - - 1.6
20/02:00pm 11.3 2.2 6.0 70 2.5 WNW 43 59 23 32 - - 1.6
20/01:55pm 11.2 3.3 6.1 71 2.4 WNW 37 59 20 32 - - 1.6
20/01:30pm 11.3 4.6 7.2 76 2.0 W 32 48 17 26 - - 1.6
20/01:28pm 11.4 4.9 8.1 80 1.6 W 32 50 17 27 - - 1.6
20/01:20pm 11.1 2.5 8.3 83 1.4 NW 43 57 23 31 - - 1.6
20/01:00pm 11.1 3.4 10.3 95 0.4 NW 41 61 22 33 - - 1.6
20/12:55pm 11.3 4.6 11.0 98 0.2 NW 37 61 20 33 - - 1.6
20/12:54pm 11.4 5.1 11.2 99 0.1 NW 35 50 19 27 - - 1.6
20/12:30pm 11.3 3.5 11.1 99 0.1 WNW 43 57 23 31 - - 1.6
20/12:05pm 10.3 4.2 10.3 100 0.0 WNW 33 57 18 31 - - 1.6
20/12:00pm 10.3 5.1 10.3 100 0.0 NW 28 39 15 21 - - 1.6
20/11:30am 10.5 2.5 10.5 100 0.0 NW 43 61 23 33 - - 0.6
20/11:03am 10.2 -0.1 9.7 97 0.3 WNW 54 72 29 39 - - 0.6
20/11:00am 10.1 -0.8 9.5 96 0.3 WNW 57 72 31 39 - - 0.6
20/10:51am 10.4 0.7 10.4 100 0.0 WNW 52 70 28 38 - - 0.6
20/10:30am 11.2 2.1 11.2 100 0.0 WNW 50 65 27 35 - - 0.2
20/10:06am 11.3 1.8 11.3 100 0.0 NW 52 74 28 40 - - 0.0
20/10:00am 11.0 1.1 11.0 100 0.0 WNW 54 69 29 37 - - 0.0
20/09:30am 10.9 2.1 10.9 100 0.0 NW 48 67 26 36 - - 0.0
20/09:13am 10.8 3.3 10.8 100 0.0 WNW 41 63 22 34 - - 0.0
20/09:00am 10.7 4.7 10.7 100 0.0 WNW 33 44 18 24 - - 1.8
20/08:30am 10.5 2.0 10.5 100 0.0 WNW 46 74 25 40 - - 1.4
20/08:24am 10.4 3.5 10.4 100 0.0 NW 37 67 20 36 - - 1.4
20/08:00am 10.0 4.0 10.0 100 0.0 NNW 32 39 17 21 - - 1.4
20/07:53am 10.0 5.5 10.0 100 0.0 NNW 24 39 13 21 - - 1.4
20/07:30am 9.7 7.6 9.7 100 0.0 N 11 17 6 9 - - 1.4
20/07:00am 9.7 6.8 9.7 100 0.0 N 15 20 8 11 - - 1.2
20/06:30am 9.6 5.4 9.6 100 0.0 NNW 22 28 12 15 - - 0.8
20/06:00am 9.8 5.1 9.3 97 0.3 NNW 24 43 13 23 - - 0.6
20/05:30am 10.3 3.3 8.6 89 0.9 NNW 35 44 19 24 - - 0.6
20/05:15am 10.3 3.7 8.4 88 0.9 NNW 33 52 18 28 - - 0.6
20/05:00am 10.3 3.2 8.2 87 1.0 NNW 35 46 19 25 - - 0.6
20/04:30am 10.1 2.6 7.9 86 1.1 NNW 37 46 20 25 - - 0.6
20/04:00am 10.4 2.4 7.6 83 1.4 NNW 39 48 21 26 - - 0.6
20/03:30am 10.2 1.4 7.3 82 1.4 NNW 43 50 23 27 - - 0.6
20/03:00am 10.2 1.6 8.1 87 1.0 NNW 43 48 23 26 - - 0.6
20/02:30am 9.9 2.9 8.5 91 0.7 NNW 35 46 19 25 - - 0.6
20/02:00am 10.1 2.3 6.8 80 1.6 NNW 37 46 20 25 - - 0.6
20/01:30am 10.1 1.9 6.6 79 1.7 NNW 39 54 21 29 - - 0.6
20/01:00am 9.8 3.3 6.7 81 1.5 NNW 30 41 16 22 - - 0.6
20/12:30am 9.8 3.3 6.3 79 1.7 WNW 30 37 16 20 - - 0.6
20/12:00am 10.0 3.6 7.1 82 1.4 NW 30 41 16 22 - - 0.6
 
Date/Time
EDT
Temp
°C
App
Temp
°C
Dew
Point
°C
Rel
Hum
%
Delta-T
°C
Wind Press
QNH
hPa
Press
MSL
hPa
Rain since
9am
mm
Dir  Spd
km/h
Gust
km/h
Spd
kts
Gust
kts
19/11:30pm 9.8 4.9 6.9 82 1.4 NW 22 32 12 17 - - 0.6
19/11:00pm 9.7 4.4 7.0 83 1.3 NW 24 30 13 16 - - 0.6
19/10:30pm 9.4 5.0 7.3 87 1.0 NW 20 26 11 14 - - 0.6
19/10:00pm 9.6 3.6 6.9 83 1.3 WNW 28 39 15 21 - - 0.6
19/09:30pm 9.6 2.9 7.4 86 1.1 NW 32 41 17 22 - - 0.6
19/09:00pm 9.4 1.9 8.0 91 0.7 NW 37 46 20 25 - - 0.6
19/08:30pm 9.4 1.9 7.8 90 0.8 NW 37 50 20 27 - - 0.6
19/08:00pm 10.3 3.8 6.6 78 1.8 WNW 30 37 16 20 - - 0.6
19/07:30pm 10.4 3.5 7.1 80 1.6 NW 33 41 18 22 - - 0.6
19/07:00pm 10.5 4.8 8.4 87 1.0 NW 28 33 15 18 - - 0.6
19/06:30pm 11.2 5.0 7.9 80 1.6 NW 30 41 16 22 - - 0.6
19/06:00pm 12.4 4.6 8.3 76 2.1 WNW 39 52 21 28 - - 0.6
19/05:30pm 10.8 2.8 7.5 80 1.6 WNW 39 50 21 27 - - 0.6
19/05:00pm 11.9 5.4 8.2 78 1.9 NW 32 44 17 24 - - 0.6
19/04:30pm 12.3 5.2 8.0 75 2.2 WNW 35 48 19 26 - - 0.6
19/04:13pm 12.9 5.9 8.4 74 2.3 WNW 35 56 19 30 - - 0.6
19/04:08pm 13.5 6.8 9.7 78 2.0 WNW 35 46 19 25 - - 0.6
19/04:00pm 11.7 4.5 9.1 84 1.3 W 37 48 20 26 - - 0.6
19/03:55pm 10.7 2.9 8.3 85 1.2 W 39 57 21 31 - - 0.6
19/03:43pm 10.8 2.6 8.0 83 1.4 WNW 41 56 22 30 - - 0.6
19/03:30pm 13.1 5.7 9.9 81 1.7 NW 39 48 21 26 - - 0.6
19/03:00pm 11.3 4.1 9.2 87 1.1 NW 37 43 20 23 - - 0.6
19/02:58pm 11.8 5.1 9.7 87 1.1 NW 35 43 19 23 - - 0.6
19/02:30pm 10.6 3.6 10.1 97 0.3 WNW 37 50 20 27 - - 0.6
19/02:13pm 9.7 4.7 9.7 100 0.0 WNW 26 41 14 22 - - 0.6
19/02:00pm 10.1 2.8 8.9 92 0.6 NW 37 46 20 25 - - 0.2
19/01:30pm 11.1 4.3 7.8 80 1.6 NW 33 52 18 28 - - 0.2
19/01:28pm 11.8 5.7 8.1 78 1.9 NW 30 50 16 27 - - 0.2
19/01:00pm 10.5 3.8 9.6 94 0.5 NW 35 41 19 22 - - 0.2
19/12:30pm 10.1 3.5 10.0 99 0.1 WNW 35 46 19 25 - - 0.2
19/12:00pm 10.1 2.9 7.7 85 1.2 NW 35 44 19 24 - - 0.2
19/11:30am 11.9 5.5 11.9 100 0.0 NW 37 48 20 26 - - 0.2
19/11:00am 9.0 2.1 9.0 100 0.0 NW 35 41 19 22 - - 0.0
19/10:30am 8.3 0.4 8.0 98 0.1 NW 39 54 21 29 - - 0.0
19/10:00am 8.0 0.8 7.6 97 0.2 WNW 35 46 19 25 - - 0.0
19/09:30am 8.4 -1.4 6.9 90 0.7 WNW 48 61 26 33 - - 0.0
19/09:06am 8.4 -0.3 8.3 99 0.0 WNW 44 63 24 34 - - 0.0
19/09:00am 8.2 -1.5 7.4 95 0.4 NW 48 63 26 34 - - 4.8
19/08:41am 8.2 -1.3 6.8 91 0.7 WNW 46 65 25 35 - - 4.8
19/08:30am 7.5 -1.5 7.1 97 0.2 WNW 44 61 24 33 - - 4.8
19/08:10am 7.6 -3.2 7.6 100 0.0 WNW 54 76 29 41 - - 4.8
19/08:00am 7.9 -3.2 7.9 100 0.0 NW 56 69 30 37 - - 4.4
19/07:52am 8.2 -2.0 7.0 92 0.6 NW 50 69 27 37 - - 4.2
19/07:30am 8.4 -0.7 6.7 89 0.8 NW 44 57 24 31 - - 4.2
19/07:00am 8.1 -0.8 7.7 97 0.2 NW 44 61 24 33 - - 4.2
19/06:52am 8.1 -0.6 7.7 97 0.2 NW 43 61 23 33 - - 4.2
19/06:30am 7.9 1.1 7.6 98 0.1 NNW 33 46 18 25 - - 4.2
19/06:00am 8.1 -0.1 6.4 89 0.8 WNW 39 56 21 30 - - 4.2
19/05:59am 8.1 -0.5 6.4 89 0.8 WNW 41 56 22 30 - - 4.2
19/05:30am 8.2 -1.4 6.2 87 0.9 NW 46 57 25 31 - - 4.2
19/05:00am 7.8 -1.7 6.6 92 0.6 NW 46 56 25 30 - - 4.2
19/04:30am 7.8 -1.7 6.6 92 0.6 NW 46 59 25 32 - - 4.2
19/04:00am 7.5 -2.4 6.4 93 0.5 NW 48 61 26 33 - - 4.2
19/03:30am 7.5 -2.3 6.9 96 0.3 NW 48 59 26 32 - - 4.2
19/03:00am 7.3 -2.1 7.0 98 0.1 NW 46 61 25 33 - - 4.2
19/02:56am 7.4 -1.6 7.1 98 0.1 NW 44 63 24 34 - - 4.2
19/02:30am 8.0 -2.0 6.1 88 0.9 NW 48 59 26 32 - - 4.2
19/02:16am 7.9 -1.7 6.4 90 0.7 NW 46 65 25 35 - - 4.2
19/02:00am 8.1 -1.0 6.6 90 0.7 NW 44 61 24 33 - - 4.2
19/01:52am 7.9 -0.7 6.5 91 0.7 NW 41 59 22 32 - - 4.2
19/01:30am 8.0 -1.2 6.5 90 0.7 NW 44 54 24 29 - - 4.2
19/01:20am 8.0 -1.5 6.6 91 0.7 NW 46 65 25 35 - - 4.2
19/01:00am 8.0 -2.2 6.9 93 0.5 NW 50 61 27 33 - - 4.2
19/12:30am 8.0 -2.2 7.1 94 0.4 NW 50 63 27 34 - - 4.2
19/12:00am 7.8 -1.3 6.9 94 0.4 NW 44 56 24 30 - - 4.2
 
Date/Time
EDT
Temp
°C
App
Temp
°C
Dew
Point
°C
Rel
Hum
%
Delta-T
°C
Wind Press
QNH
hPa
Press
MSL
hPa
Rain since
9am
mm
Dir  Spd
km/h
Gust
km/h
Spd
kts
Gust
kts
18/11:30pm 7.8 -0.6 7.5 98 0.1 NW 41 52 22 28 - - 4.2
18/11:02pm 7.9 0.6 7.1 95 0.4 NW 35 54 19 29 - - 4.2
18/11:00pm 7.8 0.9 7.2 96 0.3 NW 33 48 18 26 - - 4.2
18/10:30pm 8.0 -0.5 6.8 92 0.6 WNW 41 54 22 29 - - 4.2
18/10:00pm 8.1 0.0 7.0 93 0.5 NW 39 48 21 26 - - 4.2
18/09:30pm 8.0 1.2 7.7 98 0.1 NW 33 48 18 26 - - 4.2
18/09:00pm 8.5 1.8 8.1 97 0.2 NW 33 44 18 24 - - 4.2

Other formats

Comma delimited format used in spreadsheet applications
http://www.bom.gov.au/fwo/IDT60801/IDT60801.95958.axf

JavaScript Object Notation format (JSON) in row-major order
http://www.bom.gov.au/fwo/IDT60801/IDT60801.95958.json

Data quality

Most of these data are generated automatically and are frequently updated. Quality checks on data are not normally performed. It is possible for incorrect values to appear. Refer to information at About Latest Weather Observations and please check the disclaimer before using these data.